L'image de la webcam se met à jour toutes les 30s.
La jauge météo se met à jour toutes les 10s d'après les données envoyées par la station météo du club.
Les graphiques se mettent à jour toutes les 5min et ne s'affichent que si la station est en ligne
Surfaces en herbe praticables.
MAJ le 15/05/2022 11h00 DDE
METAR de LFRD (Source NOAA)
LFRD 230230Z AUTO 32007KT 8000 BKN005 BKN010 OVC020 13/13 Q1006 TEMPO VRB15G30KT 3000 RADZ BKN030CB

TAF de LFRD (Source NOAA)
TAF AMD LFRD 230148Z 2301/2324 34010KT CAVOK TEMPO 2301/2305 3000 SHRA BKN030CB PROB40 TEMPO 2301/2304 VRB15G30KT 2000 TSRA BKN003 BECMG 2304/2306 BKN007 TEMPO 2304/2308 3000 RADZ BKN003 BECMG 2307/2309 SCT015 TEMPO 2312/2324 4000 SHRA BKN020TCU PROB40 TEMPO 2314/2318 30015G25KT 3000 SHRA BKN020CB BECMG 2315/2317 27010KT
Ayez la webcam en fond d'écran de votre téléphone ou de votre tablette Android avec l'appli du club.